sensor_id;sensor_type;location;lat;lon;timestamp;P1;durP1;ratioP1;P2;durP2;ratioP2
73898;SDS011;62234;50.892;12.724;2023-11-21T00:02:50;2.17;;;1.00;;
73898;SDS011;62234;50.892;12.724;2023-11-21T00:05:21;1.10;;;1.00;;
73898;SDS011;62234;50.892;12.724;2023-11-21T00:07:53;0.95;;;0.80;;
73898;SDS011;62234;50.892;12.724;2023-11-21T00:10:36;3.00;;;1.23;;
73898;SDS011;62234;50.892;12.724;2023-11-21T00:16:08;0.90;;;0.90;;
73898;SDS011;62234;50.892;12.724;2023-11-21T00:21:46;1.10;;;0.90;;
73898;SDS011;62234;50.892;12.724;2023-11-21T00:24:15;1.15;;;0.52;;
73898;SDS011;62234;50.892;12.724;2023-11-21T00:26:44;0.90;;;0.90;;
73898;SDS011;62234;50.892;12.724;2023-11-21T00:29:13;0.70;;;0.70;;
73898;SDS011;62234;50.892;12.724;2023-11-21T00:31:44;1.55;;;0.68;;
73898;SDS011;62234;50.892;12.724;2023-11-21T00:34:18;1.10;;;0.68;;
73898;SDS011;62234;50.892;12.724;2023-11-21T00:36:47;2.15;;;0.70;;
73898;SDS011;62234;50.892;12.724;2023-11-21T00:39:13;2.92;;;0.73;;
73898;SDS011;62234;50.892;12.724;2023-11-21T00:42:17;2.08;;;0.60;;
73898;SDS011;62234;50.892;12.724;2023-11-21T00:44:48;4.45;;;0.75;;
73898;SDS011;62234;50.892;12.724;2023-11-21T00:55:53;5.88;;;0.75;;
73898;SDS011;62234;50.892;12.724;2023-11-21T00:58:28;2.58;;;0.82;;
73898;SDS011;62234;50.892;12.724;2023-11-21T01:01:03;1.35;;;0.57;;
73898;SDS011;62234;50.892;12.724;2023-11-21T01:03:29;1.02;;;0.70;;
73898;SDS011;62234;50.892;12.724;2023-11-21T01:05:58;1.33;;;0.88;;
73898;SDS011;62234;50.892;12.724;2023-11-21T01:08:24;0.90;;;0.82;;
73898;SDS011;62234;50.892;12.724;2023-11-21T01:10:53;0.80;;;0.80;;
73898;SDS011;62234;50.892;12.724;2023-11-21T01:13:23;0.82;;;0.82;;
73898;SDS011;62234;50.892;12.724;2023-11-21T01:16:04;2.80;;;0.70;;
73898;SDS011;62234;50.892;12.724;2023-11-21T01:18:44;2.30;;;0.80;;
73898;SDS011;62234;50.892;12.724;2023-11-21T01:21:10;1.77;;;0.47;;
73898;SDS011;62234;50.892;12.724;2023-11-21T01:23:37;2.42;;;0.70;;
73898;SDS011;62234;50.892;12.724;2023-11-21T01:29:11;1.17;;;0.80;;
73898;SDS011;62234;50.892;12.724;2023-11-21T01:31:37;2.47;;;1.05;;
73898;SDS011;62234;50.892;12.724;2023-11-21T01:34:09;1.05;;;0.68;;
73898;SDS011;62234;50.892;12.724;2023-11-21T01:36:39;1.75;;;0.80;;
73898;SDS011;62234;50.892;12.724;2023-11-21T01:39:05;3.30;;;0.70;;
73898;SDS011;62234;50.892;12.724;2023-11-21T01:41:50;0.60;;;0.60;;
73898;SDS011;62234;50.892;12.724;2023-11-21T01:44:17;1.48;;;0.80;;
73898;SDS011;62234;50.892;12.724;2023-11-21T01:49:37;0.88;;;0.88;;
73898;SDS011;62234;50.892;12.724;2023-11-21T01:52:23;1.73;;;1.05;;
73898;SDS011;62234;50.892;12.724;2023-11-21T01:54:49;4.15;;;0.90;;
73898;SDS011;62234;50.892;12.724;2023-11-21T01:57:42;1.58;;;0.90;;
73898;SDS011;62234;50.892;12.724;2023-11-21T02:00:11;1.50;;;0.88;;
73898;SDS011;62234;50.892;12.724;2023-11-21T02:02:43;3.70;;;0.70;;
73898;SDS011;62234;50.892;12.724;2023-11-21T02:05:16;1.45;;;0.65;;
73898;SDS011;62234;50.892;12.724;2023-11-21T02:07:54;3.95;;;0.95;;
73898;SDS011;62234;50.892;12.724;2023-11-21T02:10:21;1.20;;;0.65;;
73898;SDS011;62234;50.892;12.724;2023-11-21T02:12:53;5.50;;;1.10;;
73898;SDS011;62234;50.892;12.724;2023-11-21T02:15:19;1.15;;;0.73;;
73898;SDS011;62234;50.892;12.724;2023-11-21T02:17:57;1.17;;;0.70;;
73898;SDS011;62234;50.892;12.724;2023-11-21T02:23:12;1.85;;;0.60;;
73898;SDS011;62234;50.892;12.724;2023-11-21T02:25:38;2.40;;;0.63;;
73898;SDS011;62234;50.892;12.724;2023-11-21T02:28:04;1.77;;;0.70;;
73898;SDS011;62234;50.892;12.724;2023-11-21T02:30:57;0.93;;;0.70;;
73898;SDS011;62234;50.892;12.724;2023-11-21T02:33:28;3.85;;;0.47;;
73898;SDS011;62234;50.892;12.724;2023-11-21T02:35:54;3.22;;;0.80;;
73898;SDS011;62234;50.892;12.724;2023-11-21T02:38:24;0.80;;;0.60;;
73898;SDS011;62234;50.892;12.724;2023-11-21T02:40:53;3.20;;;0.50;;
73898;SDS011;62234;50.892;12.724;2023-11-21T02:43:36;0.70;;;0.60;;
73898;SDS011;62234;50.892;12.724;2023-11-21T02:46:06;1.40;;;0.82;;
73898;SDS011;62234;50.892;12.724;2023-11-21T02:48:32;0.73;;;0.47;;
73898;SDS011;62234;50.892;12.724;2023-11-21T02:50:58;0.70;;;0.40;;
73898;SDS011;62234;50.892;12.724;2023-11-21T02:53:24;3.13;;;0.63;;
73898;SDS011;62234;50.892;12.724;2023-11-21T02:55:50;2.85;;;0.63;;
73898;SDS011;62234;50.892;12.724;2023-11-21T02:58:26;1.23;;;0.40;;
73898;SDS011;62234;50.892;12.724;2023-11-21T03:04:03;1.38;;;0.90;;
73898;SDS011;62234;50.892;12.724;2023-11-21T03:06:29;1.08;;;0.88;;
73898;SDS011;62234;50.892;12.724;2023-11-21T03:08:59;1.85;;;1.20;;
73898;SDS011;62234;50.892;12.724;2023-11-21T03:11:28;1.60;;;0.88;;
73898;SDS011;62234;50.892;12.724;2023-11-21T03:13:56;2.03;;;0.70;;
73898;SDS011;62234;50.892;12.724;2023-11-21T03:16:44;0.82;;;0.82;;
73898;SDS011;62234;50.892;12.724;2023-11-21T03:19:15;1.20;;;1.00;;
73898;SDS011;62234;50.892;12.724;2023-11-21T03:21:42;3.03;;;1.00;;
73898;SDS011;62234;50.892;12.724;2023-11-21T03:24:10;2.97;;;0.80;;
73898;SDS011;62234;50.892;12.724;2023-11-21T03:26:36;1.83;;;0.77;;
73898;SDS011;62234;50.892;12.724;2023-11-21T03:29:03;3.20;;;0.90;;
73898;SDS011;62234;50.892;12.724;2023-11-21T03:31:32;2.33;;;1.00;;
73898;SDS011;62234;50.892;12.724;2023-11-21T03:34:10;0.90;;;0.73;;
73898;SDS011;62234;50.892;12.724;2023-11-21T03:40:07;1.08;;;0.70;;
73898;SDS011;62234;50.892;12.724;2023-11-21T03:48:04;2.30;;;1.20;;
73898;SDS011;62234;50.892;12.724;2023-11-21T03:50:33;2.55;;;1.20;;
73898;SDS011;62234;50.892;12.724;2023-11-21T03:52:59;1.85;;;0.82;;
73898;SDS011;62234;50.892;12.724;2023-11-21T03:55:25;1.08;;;0.60;;
73898;SDS011;62234;50.892;12.724;2023-11-21T03:57:52;0.93;;;0.90;;
73898;SDS011;62234;50.892;12.724;2023-11-21T04:00:18;2.35;;;0.85;;
73898;SDS011;62234;50.892;12.724;2023-11-21T04:05:51;0.80;;;0.80;;
73898;SDS011;62234;50.892;12.724;2023-11-21T04:08:25;2.88;;;0.90;;
73898;SDS011;62234;50.892;12.724;2023-11-21T04:10:51;2.33;;;0.90;;
73898;SDS011;62234;50.892;12.724;2023-11-21T04:13:18;5.03;;;1.33;;
73898;SDS011;62234;50.892;12.724;2023-11-21T04:15:44;2.38;;;1.20;;
73898;SDS011;62234;50.892;12.724;2023-11-21T04:18:10;2.38;;;0.80;;
73898;SDS011;62234;50.892;12.724;2023-11-21T04:20:44;1.20;;;1.10;;
73898;SDS011;62234;50.892;12.724;2023-11-21T04:23:10;2.63;;;0.90;;
73898;SDS011;62234;50.892;12.724;2023-11-21T04:25:38;1.17;;;0.77;;
73898;SDS011;62234;50.892;12.724;2023-11-21T04:30:53;1.70;;;0.90;;
73898;SDS011;62234;50.892;12.724;2023-11-21T04:33:21;0.82;;;0.65;;
73898;SDS011;62234;50.892;12.724;2023-11-21T04:45:01;1.40;;;0.80;;
73898;SDS011;62234;50.892;12.724;2023-11-21T04:47:41;1.00;;;0.90;;
73898;SDS011;62234;50.892;12.724;2023-11-21T04:50:24;1.75;;;0.63;;
73898;SDS011;62234;50.892;12.724;2023-11-21T04:52:52;1.95;;;0.98;;
73898;SDS011;62234;50.892;12.724;2023-11-21T04:55:24;2.22;;;1.00;;
73898;SDS011;62234;50.892;12.724;2023-11-21T04:57:59;1.75;;;1.20;;
73898;SDS011;62234;50.892;12.724;2023-11-21T05:03:41;2.55;;;0.95;;
73898;SDS011;62234;50.892;12.724;2023-11-21T05:06:09;2.35;;;1.15;;
73898;SDS011;62234;50.892;12.724;2023-11-21T05:57:42;2.10;;;1.48;;
73898;SDS011;62234;50.892;12.724;2023-11-21T06:00:11;2.30;;;1.77;;
73898;SDS011;62234;50.892;12.724;2023-11-21T06:02:44;5.07;;;1.40;;
73898;SDS011;62234;50.892;12.724;2023-11-21T06:05:10;3.28;;;1.38;;
73898;SDS011;62234;50.892;12.724;2023-11-21T06:07:37;5.18;;;2.15;;
73898;SDS011;62234;50.892;12.724;2023-11-21T06:10:04;2.63;;;1.60;;
73898;SDS011;62234;50.892;12.724;2023-11-21T06:12:38;2.67;;;1.67;;
73898;SDS011;62234;50.892;12.724;2023-11-21T06:15:08;5.38;;;2.30;;
73898;SDS011;62234;50.892;12.724;2023-11-21T06:17:34;3.85;;;1.95;;
73898;SDS011;62234;50.892;12.724;2023-11-21T06:20:04;2.33;;;1.60;;
73898;SDS011;62234;50.892;12.724;2023-11-21T06:22:37;3.72;;;1.77;;
73898;SDS011;62234;50.892;12.724;2023-11-21T06:25:04;3.58;;;1.85;;
73898;SDS011;62234;50.892;12.724;2023-11-21T06:27:39;1.95;;;1.80;;
73898;SDS011;62234;50.892;12.724;2023-11-21T06:30:06;1.90;;;1.58;;
73898;SDS011;62234;50.892;12.724;2023-11-21T06:32:34;2.70;;;1.70;;
73898;SDS011;62234;50.892;12.724;2023-11-21T06:35:01;3.17;;;1.92;;
73898;SDS011;62234;50.892;12.724;2023-11-21T06:37:29;1.90;;;1.45;;
73898;SDS011;62234;50.892;12.724;2023-11-21T06:40:04;2.65;;;1.95;;
73898;SDS011;62234;50.892;12.724;2023-11-21T06:42:31;2.50;;;1.80;;
73898;SDS011;62234;50.892;12.724;2023-11-21T06:44:58;3.97;;;2.13;;
73898;SDS011;62234;50.892;12.724;2023-11-21T06:47:27;2.72;;;2.03;;
73898;SDS011;62234;50.892;12.724;2023-11-21T06:49:54;2.38;;;2.00;;
73898;SDS011;62234;50.892;12.724;2023-11-21T06:52:20;2.15;;;1.95;;
73898;SDS011;62234;50.892;12.724;2023-11-21T06:54:53;2.20;;;2.00;;
73898;SDS011;62234;50.892;12.724;2023-11-21T06:57:24;7.68;;;1.83;;
73898;SDS011;62234;50.892;12.724;2023-11-21T06:59:53;3.05;;;1.92;;
73898;SDS011;62234;50.892;12.724;2023-11-21T07:02:22;5.80;;;1.92;;
73898;SDS011;62234;50.892;12.724;2023-11-21T07:04:48;3.47;;;2.20;;
73898;SDS011;62234;50.892;12.724;2023-11-21T07:07:20;2.53;;;2.03;;
73898;SDS011;62234;50.892;12.724;2023-11-21T07:09:49;2.28;;;1.70;;
73898;SDS011;62234;50.892;12.724;2023-11-21T07:12:32;5.30;;;1.90;;
73898;SDS011;62234;50.892;12.724;2023-11-21T07:15:16;6.60;;;2.45;;
73898;SDS011;62234;50.892;12.724;2023-11-21T07:17:44;4.57;;;2.35;;
73898;SDS011;62234;50.892;12.724;2023-11-21T07:20:18;3.53;;;2.38;;
73898;SDS011;62234;50.892;12.724;2023-11-21T07:22:57;3.38;;;1.90;;
73898;SDS011;62234;50.892;12.724;2023-11-21T07:25:24;2.83;;;2.33;;
73898;SDS011;62234;50.892;12.724;2023-11-21T07:27:51;5.25;;;2.25;;
73898;SDS011;62234;50.892;12.724;2023-11-21T07:30:21;3.63;;;2.75;;
73898;SDS011;62234;50.892;12.724;2023-11-21T07:32:47;4.28;;;2.08;;
73898;SDS011;62234;50.892;12.724;2023-11-21T07:35:14;4.70;;;2.65;;
73898;SDS011;62234;50.892;12.724;2023-11-21T07:37:39;3.17;;;2.15;;
73898;SDS011;62234;50.892;12.724;2023-11-21T07:40:12;5.35;;;3.00;;
73898;SDS011;62234;50.892;12.724;2023-11-21T07:42:38;11.93;;;3.70;;
73898;SDS011;62234;50.892;12.724;2023-11-21T07:45:04;7.93;;;3.25;;
73898;SDS011;62234;50.892;12.724;2023-11-21T07:47:50;6.70;;;3.42;;
73898;SDS011;62234;50.892;12.724;2023-11-21T08:10:55;11.50;;;4.28;;
73898;SDS011;62234;50.892;12.724;2023-11-21T08:22:35;6.70;;;3.85;;
73898;SDS011;62234;50.892;12.724;2023-11-21T08:25:01;10.85;;;4.72;;
73898;SDS011;62234;50.892;12.724;2023-11-21T08:27:29;9.55;;;4.13;;
73898;SDS011;62234;50.892;12.724;2023-11-21T08:29:55;22.45;;;5.00;;
73898;SDS011;62234;50.892;12.724;2023-11-21T08:32:22;11.10;;;5.45;;
73898;SDS011;62234;50.892;12.724;2023-11-21T08:34:48;9.32;;;4.80;;
73898;SDS011;62234;50.892;12.724;2023-11-21T08:37:17;11.25;;;4.53;;
73898;SDS011;62234;50.892;12.724;2023-11-21T08:39:48;10.70;;;5.03;;
73898;SDS011;62234;50.892;12.724;2023-11-21T08:42:18;15.23;;;6.07;;
73898;SDS011;62234;50.892;12.724;2023-11-21T08:44:44;9.93;;;4.55;;
73898;SDS011;62234;50.892;12.724;2023-11-21T08:47:10;13.07;;;5.93;;
73898;SDS011;62234;50.892;12.724;2023-11-21T08:49:36;14.63;;;5.65;;
73898;SDS011;62234;50.892;12.724;2023-11-21T08:52:03;14.70;;;6.03;;
73898;SDS011;62234;50.892;12.724;2023-11-21T08:57:49;13.10;;;5.65;;
73898;SDS011;62234;50.892;12.724;2023-11-21T09:00:16;15.40;;;5.55;;
73898;SDS011;62234;50.892;12.724;2023-11-21T09:02:42;20.52;;;6.30;;
73898;SDS011;62234;50.892;12.724;2023-11-21T09:05:08;13.77;;;5.90;;
73898;SDS011;62234;50.892;12.724;2023-11-21T09:07:35;17.48;;;6.65;;
73898;SDS011;62234;50.892;12.724;2023-11-21T09:10:02;14.80;;;6.35;;
73898;SDS011;62234;50.892;12.724;2023-11-21T09:12:28;19.30;;;6.80;;
73898;SDS011;62234;50.892;12.724;2023-11-21T09:14:54;14.40;;;6.45;;
73898;SDS011;62234;50.892;12.724;2023-11-21T09:17:20;14.35;;;7.05;;
73898;SDS011;62234;50.892;12.724;2023-11-21T09:19:46;16.85;;;7.00;;
73898;SDS011;62234;50.892;12.724;2023-11-21T09:22:16;16.80;;;7.70;;
73898;SDS011;62234;50.892;12.724;2023-11-21T09:24:42;17.70;;;6.68;;
73898;SDS011;62234;50.892;12.724;2023-11-21T09:27:15;15.27;;;6.40;;
73898;SDS011;62234;50.892;12.724;2023-11-21T09:29:42;17.58;;;6.60;;
73898;SDS011;62234;50.892;12.724;2023-11-21T09:38:18;11.95;;;5.47;;
73898;SDS011;62234;50.892;12.724;2023-11-21T09:40:44;12.13;;;5.38;;
73898;SDS011;62234;50.892;12.724;2023-11-21T09:43:16;10.88;;;5.47;;
73898;SDS011;62234;50.892;12.724;2023-11-21T09:45:56;13.27;;;6.25;;
73898;SDS011;62234;50.892;12.724;2023-11-21T09:48:25;12.25;;;5.43;;
73898;SDS011;62234;50.892;12.724;2023-11-21T09:50:51;9.25;;;4.72;;
73898;SDS011;62234;50.892;12.724;2023-11-21T09:53:22;12.48;;;5.63;;
73898;SDS011;62234;50.892;12.724;2023-11-21T09:55:53;14.48;;;5.72;;
73898;SDS011;62234;50.892;12.724;2023-11-21T09:58:19;15.25;;;6.57;;
73898;SDS011;62234;50.892;12.724;2023-11-21T10:00:47;15.50;;;6.40;;
73898;SDS011;62234;50.892;12.724;2023-11-21T10:03:13;19.30;;;6.38;;
73898;SDS011;62234;50.892;12.724;2023-11-21T10:05:40;17.58;;;6.47;;
73898;SDS011;62234;50.892;12.724;2023-11-21T10:08:08;17.15;;;7.50;;
73898;SDS011;62234;50.892;12.724;2023-11-21T10:10:35;18.95;;;5.93;;
73898;SDS011;62234;50.892;12.724;2023-11-21T10:22:15;61.90;;;9.45;;
73898;SDS011;62234;50.892;12.724;2023-11-21T10:24:42;33.40;;;7.13;;
73898;SDS011;62234;50.892;12.724;2023-11-21T10:27:08;91.85;;;12.18;;
73898;SDS011;62234;50.892;12.724;2023-11-21T10:29:34;24.92;;;5.78;;
73898;SDS011;62234;50.892;12.724;2023-11-21T10:32:01;47.03;;;8.02;;
73898;SDS011;62234;50.892;12.724;2023-11-21T10:34:27;30.13;;;6.40;;
73898;SDS011;62234;50.892;12.724;2023-11-21T10:36:53;109.90;;;12.57;;
73898;SDS011;62234;50.892;12.724;2023-11-21T10:39:22;87.70;;;10.35;;
73898;SDS011;62234;50.892;12.724;2023-11-21T10:41:52;45.70;;;8.60;;
73898;SDS011;62234;50.892;12.724;2023-11-21T10:44:38;59.30;;;11.43;;
73898;SDS011;62234;50.892;12.724;2023-11-21T10:49:38;83.78;;;9.95;;
73898;SDS011;62234;50.892;12.724;2023-11-21T10:52:05;52.92;;;6.78;;
73898;SDS011;62234;50.892;12.724;2023-11-21T10:54:31;14.15;;;5.57;;
73898;SDS011;62234;50.892;12.724;2023-11-21T11:03:08;70.13;;;9.18;;
73898;SDS011;62234;50.892;12.724;2023-11-21T11:05:39;21.42;;;7.85;;
73898;SDS011;62234;50.892;12.724;2023-11-21T11:08:16;33.70;;;5.55;;
73898;SDS011;62234;50.892;12.724;2023-11-21T11:10:44;8.00;;;5.45;;
73898;SDS011;62234;50.892;12.724;2023-11-21T11:13:11;5.07;;;3.22;;
73898;SDS011;62234;50.892;12.724;2023-11-21T11:15:48;4.05;;;2.70;;
73898;SDS011;62234;50.892;12.724;2023-11-21T11:18:15;4.93;;;3.15;;
73898;SDS011;62234;50.892;12.724;2023-11-21T11:20:46;5.43;;;2.45;;
73898;SDS011;62234;50.892;12.724;2023-11-21T11:23:20;4.85;;;2.70;;
73898;SDS011;62234;50.892;12.724;2023-11-21T11:25:54;6.75;;;4.10;;
73898;SDS011;62234;50.892;12.724;2023-11-21T11:31:14;8.63;;;5.75;;
73898;SDS011;62234;50.892;12.724;2023-11-21T11:33:52;8.23;;;4.90;;
73898;SDS011;62234;50.892;12.724;2023-11-21T11:36:29;6.55;;;3.50;;
73898;SDS011;62234;50.892;12.724;2023-11-21T11:42:05;8.77;;;4.10;;
73898;SDS011;62234;50.892;12.724;2023-11-21T11:53:17;6.88;;;3.20;;
73898;SDS011;62234;50.892;12.724;2023-11-21T12:26:45;12.88;;;5.07;;
73898;SDS011;62234;50.892;12.724;2023-11-21T13:27:06;6.57;;;3.22;;
73898;SDS011;62234;50.892;12.724;2023-11-21T13:29:38;6.47;;;3.22;;
73898;SDS011;62234;50.892;12.724;2023-11-21T13:32:10;6.78;;;2.70;;
73898;SDS011;62234;50.892;12.724;2023-11-21T13:34:37;5.57;;;3.05;;
73898;SDS011;62234;50.892;12.724;2023-11-21T13:37:09;9.02;;;3.25;;
73898;SDS011;62234;50.892;12.724;2023-11-21T13:39:36;8.27;;;3.35;;
73898;SDS011;62234;50.892;12.724;2023-11-21T13:42:03;5.10;;;2.70;;
73898;SDS011;62234;50.892;12.724;2023-11-21T13:44:30;5.43;;;2.45;;
73898;SDS011;62234;50.892;12.724;2023-11-21T13:47:02;5.50;;;2.85;;
73898;SDS011;62234;50.892;12.724;2023-11-21T13:49:30;6.22;;;2.70;;
73898;SDS011;62234;50.892;12.724;2023-11-21T13:52:01;2.75;;;2.42;;
73898;SDS011;62234;50.892;12.724;2023-11-21T13:54:31;46.63;;;20.75;;
73898;SDS011;62234;50.892;12.724;2023-11-21T14:03:07;10.48;;;5.82;;
73898;SDS011;62234;50.892;12.724;2023-11-21T14:05:44;14.77;;;11.90;;
73898;SDS011;62234;50.892;12.724;2023-11-21T14:08:12;7.65;;;5.13;;
73898;SDS011;62234;50.892;12.724;2023-11-21T14:10:42;6.88;;;3.25;;
73898;SDS011;62234;50.892;12.724;2023-11-21T14:13:08;7.90;;;4.75;;
73898;SDS011;62234;50.892;12.724;2023-11-21T14:15:40;10.32;;;6.35;;
73898;SDS011;62234;50.892;12.724;2023-11-21T14:18:11;5.00;;;3.38;;
73898;SDS011;62234;50.892;12.724;2023-11-21T14:20:39;7.25;;;4.72;;
73898;SDS011;62234;50.892;12.724;2023-11-21T14:23:06;4.18;;;2.80;;
73898;SDS011;62234;50.892;12.724;2023-11-21T14:25:35;4.43;;;3.28;;
73898;SDS011;62234;50.892;12.724;2023-11-21T14:28:02;5.25;;;2.67;;
73898;SDS011;62234;50.892;12.724;2023-11-21T14:30:28;4.32;;;2.70;;
73898;SDS011;62234;50.892;12.724;2023-11-21T14:32:56;4.05;;;3.22;;
73898;SDS011;62234;50.892;12.724;2023-11-21T14:35:22;8.80;;;5.90;;
73898;SDS011;62234;50.892;12.724;2023-11-21T14:37:48;3.88;;;3.17;;
73898;SDS011;62234;50.892;12.724;2023-11-21T14:40:14;6.55;;;3.15;;
73898;SDS011;62234;50.892;12.724;2023-11-21T14:42:41;9.15;;;5.28;;
73898;SDS011;62234;50.892;12.724;2023-11-21T14:45:12;7.70;;;4.18;;
73898;SDS011;62234;50.892;12.724;2023-11-21T14:47:41;9.23;;;7.25;;
73898;SDS011;62234;50.892;12.724;2023-11-21T14:50:13;6.45;;;3.58;;
73898;SDS011;62234;50.892;12.724;2023-11-21T14:52:58;10.68;;;5.10;;
73898;SDS011;62234;50.892;12.724;2023-11-21T14:55:24;5.22;;;3.00;;
73898;SDS011;62234;50.892;12.724;2023-11-21T14:57:50;9.32;;;4.20;;
73898;SDS011;62234;50.892;12.724;2023-11-21T15:00:17;7.90;;;4.57;;
73898;SDS011;62234;50.892;12.724;2023-11-21T15:02:58;10.15;;;5.50;;
73898;SDS011;62234;50.892;12.724;2023-11-21T15:05:25;12.07;;;6.07;;
73898;SDS011;62234;50.892;12.724;2023-11-21T15:07:52;10.00;;;5.60;;
73898;SDS011;62234;50.892;12.724;2023-11-21T15:10:21;10.68;;;7.30;;
73898;SDS011;62234;50.892;12.724;2023-11-21T15:13:03;8.48;;;4.40;;
73898;SDS011;62234;50.892;12.724;2023-11-21T15:15:29;6.88;;;3.90;;
73898;SDS011;62234;50.892;12.724;2023-11-21T15:17:57;7.63;;;5.50;;
73898;SDS011;62234;50.892;12.724;2023-11-21T15:20:24;8.95;;;5.38;;
73898;SDS011;62234;50.892;12.724;2023-11-21T15:22:51;13.63;;;8.40;;
73898;SDS011;62234;50.892;12.724;2023-11-21T15:25:17;9.50;;;6.35;;
73898;SDS011;62234;50.892;12.724;2023-11-21T15:27:43;5.90;;;4.15;;
73898;SDS011;62234;50.892;12.724;2023-11-21T15:30:11;9.00;;;4.15;;
73898;SDS011;62234;50.892;12.724;2023-11-21T15:32:38;10.27;;;7.40;;
73898;SDS011;62234;50.892;12.724;2023-11-21T15:35:04;12.48;;;5.03;;
73898;SDS011;62234;50.892;12.724;2023-11-21T15:37:30;7.72;;;4.75;;
73898;SDS011;62234;50.892;12.724;2023-11-21T15:39:56;7.13;;;3.95;;
73898;SDS011;62234;50.892;12.724;2023-11-21T15:42:22;7.30;;;4.70;;
73898;SDS011;62234;50.892;12.724;2023-11-21T15:44:48;7.38;;;3.80;;
73898;SDS011;62234;50.892;12.724;2023-11-21T15:47:16;9.35;;;4.72;;
73898;SDS011;62234;50.892;12.724;2023-11-21T15:49:42;9.65;;;4.53;;
73898;SDS011;62234;50.892;12.724;2023-11-21T15:52:08;9.88;;;5.20;;
73898;SDS011;62234;50.892;12.724;2023-11-21T15:54:35;8.35;;;4.65;;
73898;SDS011;62234;50.892;12.724;2023-11-21T15:57:01;10.25;;;6.07;;
73898;SDS011;62234;50.892;12.724;2023-11-21T15:59:28;8.85;;;4.72;;
73898;SDS011;62234;50.892;12.724;2023-11-21T16:01:56;6.43;;;4.22;;
73898;SDS011;62234;50.892;12.724;2023-11-21T16:04:22;7.85;;;4.97;;
73898;SDS011;62234;50.892;12.724;2023-11-21T16:06:51;9.15;;;4.68;;
73898;SDS011;62234;50.892;12.724;2023-11-21T16:09:17;10.35;;;5.13;;
73898;SDS011;62234;50.892;12.724;2023-11-21T16:12:02;6.32;;;4.00;;
73898;SDS011;62234;50.892;12.724;2023-11-21T16:14:29;8.52;;;4.47;;
73898;SDS011;62234;50.892;12.724;2023-11-21T16:17:00;8.55;;;4.68;;
73898;SDS011;62234;50.892;12.724;2023-11-21T16:19:27;7.90;;;3.95;;
73898;SDS011;62234;50.892;12.724;2023-11-21T16:21:53;7.43;;;4.45;;
73898;SDS011;62234;50.892;12.724;2023-11-21T16:24:19;9.98;;;4.20;;
73898;SDS011;62234;50.892;12.724;2023-11-21T16:26:46;8.02;;;4.00;;
73898;SDS011;62234;50.892;12.724;2023-11-21T16:29:12;8.63;;;4.50;;
73898;SDS011;62234;50.892;12.724;2023-11-21T16:31:38;7.32;;;3.58;;
73898;SDS011;62234;50.892;12.724;2023-11-21T16:34:11;8.63;;;3.78;;
73898;SDS011;62234;50.892;12.724;2023-11-21T16:36:38;5.57;;;3.15;;
73898;SDS011;62234;50.892;12.724;2023-11-21T16:48:18;8.00;;;3.15;;
73898;SDS011;62234;50.892;12.724;2023-11-21T16:50:44;7.35;;;3.50;;
73898;SDS011;62234;50.892;12.724;2023-11-21T16:53:10;7.60;;;3.40;;
73898;SDS011;62234;50.892;12.724;2023-11-21T16:55:36;7.43;;;3.33;;
73898;SDS011;62234;50.892;12.724;2023-11-21T16:58:02;7.70;;;2.70;;
73898;SDS011;62234;50.892;12.724;2023-11-21T17:00:29;4.07;;;2.40;;
73898;SDS011;62234;50.892;12.724;2023-11-21T17:02:55;5.00;;;2.75;;
73898;SDS011;62234;50.892;12.724;2023-11-21T17:05:21;5.00;;;2.50;;
73898;SDS011;62234;50.892;12.724;2023-11-21T17:07:47;7.10;;;2.60;;
73898;SDS011;62234;50.892;12.724;2023-11-21T17:10:13;3.25;;;1.92;;
73898;SDS011;62234;50.892;12.724;2023-11-21T17:12:40;4.40;;;2.08;;
73898;SDS011;62234;50.892;12.724;2023-11-21T17:15:06;5.72;;;2.60;;
73898;SDS011;62234;50.892;12.724;2023-11-21T17:17:33;3.53;;;2.33;;
73898;SDS011;62234;50.892;12.724;2023-11-21T17:19:59;4.85;;;2.38;;
73898;SDS011;62234;50.892;12.724;2023-11-21T17:22:30;4.60;;;2.17;;
73898;SDS011;62234;50.892;12.724;2023-11-21T17:24:56;5.70;;;2.42;;
73898;SDS011;62234;50.892;12.724;2023-11-21T17:27:23;5.03;;;2.60;;
73898;SDS011;62234;50.892;12.724;2023-11-21T17:29:48;3.67;;;2.53;;
73898;SDS011;62234;50.892;12.724;2023-11-21T17:32:14;2.60;;;2.17;;
73898;SDS011;62234;50.892;12.724;2023-11-21T17:34:41;3.42;;;2.08;;
73898;SDS011;62234;50.892;12.724;2023-11-21T17:37:07;3.30;;;2.10;;
73898;SDS011;62234;50.892;12.724;2023-11-21T17:39:33;4.30;;;2.55;;
73898;SDS011;62234;50.892;12.724;2023-11-21T17:41:59;3.05;;;2.25;;
73898;SDS011;62234;50.892;12.724;2023-11-21T17:44:26;3.67;;;2.17;;
73898;SDS011;62234;50.892;12.724;2023-11-21T17:46:52;3.25;;;2.30;;
73898;SDS011;62234;50.892;12.724;2023-11-21T17:49:18;5.05;;;2.67;;
73898;SDS011;62234;50.892;12.724;2023-11-21T17:51:44;4.68;;;2.75;;
73898;SDS011;62234;50.892;12.724;2023-11-21T17:54:10;3.80;;;2.05;;
73898;SDS011;62234;50.892;12.724;2023-11-21T17:56:36;3.70;;;2.47;;
73898;SDS011;62234;50.892;12.724;2023-11-21T17:59:02;4.80;;;2.92;;
73898;SDS011;62234;50.892;12.724;2023-11-21T18:01:29;4.47;;;2.55;;
73898;SDS011;62234;50.892;12.724;2023-11-21T18:04:00;6.22;;;2.22;;
73898;SDS011;62234;50.892;12.724;2023-11-21T18:06:26;3.95;;;2.40;;
73898;SDS011;62234;50.892;12.724;2023-11-21T18:08:53;5.05;;;2.70;;
73898;SDS011;62234;50.892;12.724;2023-11-21T18:11:19;2.20;;;1.48;;
73898;SDS011;62234;50.892;12.724;2023-11-21T18:13:45;3.15;;;1.60;;
73898;SDS011;62234;50.892;12.724;2023-11-21T18:16:11;4.57;;;2.95;;
73898;SDS011;62234;50.892;12.724;2023-11-21T18:18:37;4.07;;;2.00;;
73898;SDS011;62234;50.892;12.724;2023-11-21T18:21:04;3.60;;;1.70;;
73898;SDS011;62234;50.892;12.724;2023-11-21T18:23:32;4.95;;;2.08;;
73898;SDS011;62234;50.892;12.724;2023-11-21T18:25:59;2.03;;;1.70;;
73898;SDS011;62234;50.892;12.724;2023-11-21T18:28:25;2.78;;;2.05;;
73898;SDS011;62234;50.892;12.724;2023-11-21T18:30:51;2.67;;;1.92;;
73898;SDS011;62234;50.892;12.724;2023-11-21T18:33:17;2.55;;;1.70;;
73898;SDS011;62234;50.892;12.724;2023-11-21T18:35:44;3.67;;;2.25;;
73898;SDS011;62234;50.892;12.724;2023-11-21T18:38:10;2.33;;;1.92;;
73898;SDS011;62234;50.892;12.724;2023-11-21T18:40:37;2.95;;;2.30;;
73898;SDS011;62234;50.892;12.724;2023-11-21T18:43:03;3.15;;;2.58;;
73898;SDS011;62234;50.892;12.724;2023-11-21T18:45:29;6.32;;;2.65;;
73898;SDS011;62234;50.892;12.724;2023-11-21T18:47:56;4.65;;;2.83;;
73898;SDS011;62234;50.892;12.724;2023-11-21T18:50:22;5.72;;;3.50;;
73898;SDS011;62234;50.892;12.724;2023-11-21T18:52:48;4.20;;;2.75;;
73898;SDS011;62234;50.892;12.724;2023-11-21T18:55:15;5.00;;;3.25;;
73898;SDS011;62234;50.892;12.724;2023-11-21T18:57:41;4.10;;;2.50;;
73898;SDS011;62234;50.892;12.724;2023-11-21T19:00:08;4.70;;;2.70;;
73898;SDS011;62234;50.892;12.724;2023-11-21T19:02:34;3.13;;;2.70;;
73898;SDS011;62234;50.892;12.724;2023-11-21T19:05:00;5.25;;;2.70;;
73898;SDS011;62234;50.892;12.724;2023-11-21T19:07:30;4.13;;;2.65;;
73898;SDS011;62234;50.892;12.724;2023-11-21T19:10:01;3.30;;;2.47;;
73898;SDS011;62234;50.892;12.724;2023-11-21T19:12:29;4.22;;;2.70;;
73898;SDS011;62234;50.892;12.724;2023-11-21T19:14:56;9.48;;;3.95;;
73898;SDS011;62234;50.892;12.724;2023-11-21T19:17:22;4.10;;;3.10;;
73898;SDS011;62234;50.892;12.724;2023-11-21T19:19:49;3.85;;;2.67;;
73898;SDS011;62234;50.892;12.724;2023-11-21T19:22:15;6.03;;;3.40;;